Observations for CHRISTCHURCH IN, New Zealand (NZCH)

NZCH 180530Z AUTO 24007KT 6000 DZ OVC008/// 07/07 Q1008 BECMG 9999 TEMPO 4000 DZ
NZCH 180500Z AUTO 23008KT 5000 -RA HZ BKN012/// 07/07 Q1007 BECMG 9999 TEMPO 4000 DZ
NZCH 180430Z AUTO 22009KT 9999 BKN010/// OVC014/// 08/06 Q1007 TEMPO 4000 DZ BKN012 
NZCH 180400Z AUTO 21008KT 9999 BKN010/// OVC018/// 08/07 Q1007 NOSIG
NZCH 180330Z AUTO 23008KT 9999 OVC016/// 08/07 Q1006 BECMG BKN012   
NZCH 180300Z AUTO 23007KT 9999 FEW010/// OVC017/// 08/07 Q1006 BECMG BKN012 
NZCH 180230Z AUTO 27003KT 9999 OVC015/// 08/07 Q1006 BECMG 20012KT BKN012   
NZCH 180200Z AUTO 24006KT 9999 OVC017/// 08/07 Q1006 BECMG BKN012   
NZCH 180130Z AUTO 25004KT 220V290 9999 OVC018/// 08/07 Q1006 TEMPO BKN008   
NZCH 180100Z AUTO 27004KT 230V300 9999 BKN018/// 08/07 Q1006 TEMPO BKN008 BECMG FM0200 20012KT  
NZCH 180030Z AUTO 25004KT 9999 OVC014/// 08/07 Q1006
NZCH 180000Z AUTO 28003KT 9999 OVC008/// 08/07 Q1007 TEMPO FEW010 BKN018
NZCH 172330Z AUTO 19001KT 9999 BKN007/// 08/07 Q1007 TEMPO BKN010   
NZCH 172330Z AUTO 19001KT 9999 BKN007/// 08/07 Q1007 BECMG BKN018 TEMPO BKN010
NZCH 172300Z AUTO 22002KT 9999 BKN010/// OVC018/// 08/07 Q1007 BECMG BKN018 TEMPO BKN010
NZCH 172230Z AUTO 21003KT 9999 FEW011/// BKN018/// 08/07 Q1007 TEMPO BKN010 
NZCH 172200Z AUTO 21002KT 9999 BKN009/// OVC017/// 08/07 Q1007 TEMPO BKN014 
NZCH 172130Z AUTO 21001KT 9999 SCT010/// OVC018/// 08/07 Q1007 TEMPO BKN014 
NZCH 172100Z AUTO 23003KT 9999 FEW006/// OVC017/// 07/07 Q1007 TEMPO BKN014 
NZCH 172030Z AUTO 27002KT 9999 OVC013/// 07/06 Q1006 NOSIG  
NZCH 172000Z AUTO 26001KT 9999 BKN014/// 07/06 Q1006 NOSIG  
NZCH 171930Z AUTO 30001KT 9999 OVC011/// 07/06 Q1006 NOSIG  
NZCH 171900Z AUTO 31001KT 9999 OVC011/// 07/06 Q1006 NOSIG  
NZCH 171830Z AUTO 29001KT 9999 OVC012/// 07/06 Q1006 NOSIG  
NZCH 171800Z AUTO 01003KT 9999 OVC011/// 07/06 Q1006 NOSIG  
NZCH 171730Z AUTO 35003KT 9999 OVC011/// 07/07 Q1006 NOSIG  
NZCH 171700Z AUTO 01003KT 9999 OVC011/// 07/07 Q1006 NOSIG  
NZCH 171630Z AUTO 01003KT 9999 OVC011/// 08/07 Q1006 NOSIG  
NZCH 171600Z AUTO 02004KT 9999 OVC011/// 08/07 Q1006 NOSIG  
NZCH 171530Z AUTO 04003KT 9999 OVC010/// 08/07 Q1007 NOSIG  
NZCH 171500Z AUTO 35004KT 320V020 9999 OVC010/// 08/07 Q1007 NOSIG  
NZCH 171430Z AUTO 35003KT 9999 OVC011/// 08/07 Q1007 NOSIG  
NZCH 171400Z AUTO 34002KT 9999 OVC010/// 08/07 Q1007 NOSIG  
NZCH 171330Z AUTO 02002KT 9999 OVC010/// 08/07 Q1007 NOSIG  
NZCH 171300Z AUTO 03001KT 9999 OVC010/// 08/07 Q1007 NOSIG  
NZCH 171230Z AUTO 35001KT 9999 OVC011/// 08/07 Q1007 NOSIG  
NZCH 171200Z AUTO 33001KT 9999 OVC011/// 08/07 Q1007 BECMG BKN008   
NZCH 171130Z AUTO 06004KT 020V080 9999 OVC012/// 08/07 Q1007 BECMG BKN008   
NZCH 171100Z AUTO 10004KT 9999 OVC012/// 08/07 Q1007 BECMG BKN008   
NZCH 171030Z AUTO 09004KT 9999 OVC012/// 08/07 Q1007 BECMG BKN008   
NZCH 171000Z AUTO 07004KT 9999 OVC011/// 08/07 Q1007 BECMG BKN008   
NZCH 170930Z AUTO 04004KT 9999 OVC008/// 08/07 Q1007 NOSIG  
NZCH 170900Z AUTO 05005KT 9999 OVC008/// 08/07 Q1007 NOSIG  
NZCH 170830Z AUTO 05006KT 9999 OVC006/// 08/07 Q1007 NOSIG  
NZCH 170800Z AUTO 05006KT 9999 OVC006/// 08/07 Q1007 BECMG 0200 FG BKN003   
NZCH 170730Z AUTO 06008KT 9999 OVC005/// 08/07 Q1007 BECMG 0200 FG BKN003   
NZCH 170700Z AUTO 06006KT 9999 OVC005/// 07/07 Q1007 BECMG TL0800 0200 FG BKN003
NZCH 170630Z AUTO 06007KT 6000 OVC004/// 07/07 Q1007 BECMG TL0800 0200 FG   
NZCH 170600Z AUTO 04007KT 7000 OVC004/// 07/07 Q1007 BECMG 4000 BR  
NZCH 170530Z AUTO 04007KT 9999 OVC007/// 08/07 Q1007 BECMG 4000 BR  
NZCH 170500Z AUTO 05006KT 9999 OVC009/// 09/07 Q1007 NOSIG